Time;durP1;ratioP1;P1;durP2;ratioP2;P2;SDS_P1;SDS_P2;PMS_P1;PMS_P2;Temp;Humidity;BMP_temperature;BMP_pressure;BME280_temperature;BME280_humidity;BME280_pressure;Samples;Min_cycle;Max_cycle;Signal;HPM_P1;HPM_P2
2022/02/19 00:01:42;;;;;;;10.07;2.85;;;;;;;5.49;68.67;99047.13;5132192;27;20121;-66
2022/02/19 00:04:09;;;;;;;10.15;2.50;;;;;;;5.35;68.29;99047.19;5132579;27;20047;-65
2022/02/19 00:06:38;;;;;;;7.28;2.42;;;;;;;5.34;69.05;99042.00;5133144;27;20533;-66
2022/02/19 00:09:06;;;;;;;10.38;2.33;;;;;;;5.23;67.75;99045.03;5119914;27;20055;-66
2022/02/19 00:11:33;;;;;;;8.02;2.05;;;;;;;5.23;67.81;99050.56;5112350;28;20070;-66
2022/02/19 00:14:01;;;;;;;7.63;2.50;;;;;;;5.13;66.87;99050.78;5122342;27;20401;-66
2022/02/19 00:16:28;;;;;;;7.88;1.80;;;;;;;5.18;67.12;99067.22;5116558;27;20058;-66
2022/02/19 00:18:57;;;;;;;8.13;2.50;;;;;;;5.10;66.83;99076.25;5133271;27;20069;-66
2022/02/19 00:21:24;;;;;;;5.93;2.67;;;;;;;5.20;66.07;99064.16;5133360;27;20054;-67
2022/02/19 00:23:51;;;;;;;7.07;1.95;;;;;;;5.15;65.84;99065.09;5132602;27;20054;-67
2022/02/19 00:26:19;;;;;;;7.43;2.00;;;;;;;5.13;65.08;99080.34;5131621;27;20395;-67
2022/02/19 00:28:46;;;;;;;7.97;2.58;;;;;;;5.11;64.37;99094.44;5114835;27;20059;-66
2022/02/19 00:31:13;;;;;;;7.75;2.10;;;;;;;5.06;63.54;99100.06;5121069;27;20043;-66
2022/02/19 00:33:41;;;;;;;8.15;2.50;;;;;;;5.09;62.12;99096.72;5133867;27;20074;-66
2022/02/19 00:36:10;;;;;;;7.57;1.80;;;;;;;5.22;61.13;99097.78;5133136;27;20055;-66
2022/02/19 00:38:37;;;;;;;6.10;2.00;;;;;;;5.20;59.93;99098.09;5132599;27;20062;-66
2022/02/19 00:41:04;;;;;;;7.68;1.88;;;;;;;5.27;59.82;99098.47;5132527;27;20047;-66
2022/02/19 00:43:32;;;;;;;9.57;2.10;;;;;;;5.26;60.04;99110.63;5119489;27;20503;-66
2022/02/19 00:45:59;;;;;;;9.48;1.90;;;;;;;5.19;59.60;99103.94;5132121;27;20059;-67
2022/02/19 00:48:27;;;;;;;6.15;1.67;;;;;;;5.24;58.32;99106.56;5133167;27;20069;-67
2022/02/19 00:50:54;;;;;;;6.43;1.90;;;;;;;5.28;57.87;99132.41;5132787;27;20058;-67
2022/02/19 00:53:23;;;;;;;9.93;2.05;;;;;;;5.32;57.53;99132.63;5132944;27;20055;-67
2022/02/19 00:55:50;;;;;;;6.55;1.80;;;;;;;5.36;57.67;99141.91;5132089;27;20046;-66
2022/02/19 00:58:17;;;;;;;8.18;2.35;;;;;;;5.36;56.99;99131.69;5130133;27;20047;-67
2022/02/19 01:00:45;;;;;;;6.53;2.28;;;;;;;5.34;56.84;99138.66;5131864;27;20047;-66
2022/02/19 01:03:12;;;;;;;5.38;1.80;;;;;;;5.42;57.07;99140.66;5132120;27;20404;-67
2022/02/19 01:05:39;;;;;;;7.40;1.73;;;;;;;5.34;56.68;99169.00;5132581;27;20059;-66
2022/02/19 01:08:07;;;;;;;7.55;1.85;;;;;;;5.39;56.82;99153.13;5131965;27;20065;-66
2022/02/19 01:10:37;;;;;;;7.88;1.70;;;;;;;5.45;56.63;99123.47;5132685;28;20055;-66
2022/02/19 01:13:05;;;;;;;5.72;2.20;;;;;;;5.44;55.95;99150.25;5121217;28;20061;-66
2022/02/19 01:15:32;;;;;;;6.65;1.88;;;;;;;5.49;56.09;99152.06;5123172;28;20063;-66
2022/02/19 01:18:00;;;;;;;7.60;2.08;;;;;;;5.44;55.93;99160.50;5127211;28;20058;-66
2022/02/19 01:20:27;;;;;;;8.43;3.05;;;;;;;5.46;54.83;99149.97;5132661;28;20051;-66
2022/02/19 01:22:55;;;;;;;4.00;1.58;;;;;;;5.44;54.49;99175.13;5134450;27;20059;-66
2022/02/19 01:25:22;;;;;;;8.23;2.03;;;;;;;5.45;53.96;99179.50;5136594;27;20097;-66
2022/02/19 01:27:51;;;;;;;7.85;2.42;;;;;;;5.55;53.92;99172.91;5134680;27;20043;-66
2022/02/19 01:30:18;;;;;;;9.00;2.13;;;;;;;5.56;54.40;99195.81;5136878;27;20549;-66
2022/02/19 01:32:45;;;;;;;9.93;2.20;;;;;;;5.45;52.97;99178.69;5136969;27;20043;-66
2022/02/19 01:35:12;;;;;;;9.40;2.30;;;;;;;5.59;52.97;99193.25;5136366;27;20047;-66
2022/02/19 01:37:40;;;;;;;12.13;2.28;;;;;;;5.57;52.48;99191.94;5136484;27;20047;-66
2022/02/19 01:40:08;;;;;;;5.55;1.88;;;;;;;5.61;52.45;99187.44;5136545;27;20475;-66
2022/02/19 01:42:35;;;;;;;7.82;1.50;;;;;;;5.70;52.18;99197.41;5135181;27;20047;-66
2022/02/19 01:45:07;;;;;;;6.97;1.92;;;;;;;5.65;51.54;99194.78;5125023;27;20056;-66
2022/02/19 01:47:35;;;;;;;5.57;1.63;;;;;;;5.78;51.57;99225.44;5122507;27;20391;-67
2022/02/19 01:50:03;;;;;;;9.13;2.13;;;;;;;5.82;51.85;99230.00;5135527;27;20047;-67
2022/02/19 01:52:31;;;;;;;7.68;1.80;;;;;;;5.80;51.06;99229.50;5136240;27;20058;-67
2022/02/19 01:54:59;;;;;;;5.57;2.35;;;;;;;5.87;51.02;99218.00;5135753;27;20062;-67
2022/02/19 01:57:26;;;;;;;8.73;2.00;;;;;;;5.90;51.85;99211.88;5133642;27;20048;-67
2022/02/19 01:59:54;;;;;;;6.43;1.70;;;;;;;6.02;51.92;99219.59;5135743;27;20051;-67
2022/02/19 02:02:22;;;;;;;6.15;1.88;;;;;;;5.97;52.66;99217.78;5136178;27;20379;-67
2022/02/19 02:04:49;;;;;;;5.57;2.20;;;;;;;5.97;52.21;99233.56;5135917;27;20051;-67
2022/02/19 02:07:17;;;;;;;7.25;2.35;;;;;;;6.05;51.99;99228.09;5136125;27;20047;-67
2022/02/19 02:09:45;;;;;;;7.53;1.75;;;;;;;6.02;52.88;99233.44;5135321;27;20058;-67
2022/02/19 02:12:12;;;;;;;6.40;1.60;;;;;;;6.07;53.80;99234.13;5133129;27;20050;-67
2022/02/19 02:14:41;;;;;;;7.38;2.00;;;;;;;6.16;54.22;99249.94;5135710;27;20054;-67
2022/02/19 02:17:10;;;;;;;6.07;1.90;;;;;;;6.08;54.47;99252.31;5135335;27;20051;-67
2022/02/19 02:19:40;;;;;;;5.47;2.13;;;;;;;6.10;54.46;99266.66;5136164;27;20066;-67
2022/02/19 02:22:14;;;;;;;6.00;1.80;;;;;;;6.15;54.49;99259.38;5135164;27;20058;-67
2022/02/19 02:24:42;;;;;;;8.15;2.17;;;;;;;6.17;54.55;99293.84;5135618;27;20070;-67
2022/02/19 02:27:12;;;;;;;8.75;2.30;;;;;;;6.10;54.42;99260.31;5134209;27;20062;-67
2022/02/19 02:29:43;;;;;;;5.32;1.80;;;;;;;6.18;53.96;99294.69;5134837;27;20051;-67
2022/02/19 02:32:11;;;;;;;7.57;2.22;;;;;;;6.06;52.93;99275.91;5135382;27;20062;-66
2022/02/19 02:34:49;;;;;;;7.50;2.50;;;;;;;6.12;53.31;99280.16;5134977;27;20063;-66
2022/02/19 02:37:18;;;;;;;5.82;1.75;;;;;;;6.03;53.11;99287.59;5115223;28;20043;-66
2022/02/19 02:39:46;;;;;;;11.07;2.27;;;;;;;6.10;52.48;99305.34;5135146;27;20480;-66
2022/02/19 02:42:15;;;;;;;6.80;2.17;;;;;;;6.07;52.91;99311.53;5133205;27;20051;-66
2022/02/19 02:44:43;;;;;;;5.90;1.48;;;;;;;6.04;52.00;99336.19;5135168;27;20047;-66
2022/02/19 02:47:11;;;;;;;8.20;2.00;;;;;;;6.12;52.46;99340.19;5135067;27;20051;-66
2022/02/19 02:49:38;;;;;;;5.22;2.00;;;;;;;6.05;51.80;99307.44;5135031;27;20051;-66
2022/02/19 02:52:07;;;;;;;10.02;2.15;;;;;;;6.06;51.94;99331.19;5134636;27;20047;-67
2022/02/19 02:54:36;;;;;;;6.63;2.05;;;;;;;6.01;52.17;99307.25;5132041;27;20047;-67
2022/02/19 02:57:04;;;;;;;7.80;2.08;;;;;;;6.09;51.90;99349.91;5114522;28;20061;-66
2022/02/19 02:59:32;;;;;;;5.82;1.40;;;;;;;6.06;52.00;99348.56;5114043;28;20507;-66
2022/02/19 03:01:59;;;;;;;5.75;1.33;;;;;;;6.10;51.70;99346.81;5130335;27;20054;-66
2022/02/19 03:04:27;;;;;;;4.63;1.58;;;;;;;6.17;51.40;99351.91;5129066;27;20058;-66
2022/02/19 03:06:54;;;;;;;8.40;1.92;;;;;;;6.17;51.11;99345.56;5134956;27;20059;-67
2022/02/19 03:09:21;;;;;;;7.05;1.80;;;;;;;6.12;51.64;99360.34;5134962;27;20058;-67
2022/02/19 03:11:50;;;;;;;7.88;2.00;;;;;;;6.17;51.66;99364.94;5134316;27;20054;-67
2022/02/19 03:14:18;;;;;;;4.38;1.90;;;;;;;6.15;51.56;99378.25;5132213;27;20047;-67
2022/02/19 03:16:45;;;;;;;7.18;1.85;;;;;;;6.08;51.75;99362.91;5134608;27;20055;-67
2022/02/19 03:19:15;;;;;;;8.32;2.00;;;;;;;6.09;51.45;99363.75;5134676;27;20415;-66
2022/02/19 03:21:42;;;;;;;6.57;1.90;;;;;;;6.07;51.49;99368.75;5134033;27;20047;-67
2022/02/19 03:24:09;;;;;;;7.60;1.63;;;;;;;5.83;52.11;99382.81;5134435;27;20059;-67
2022/02/19 03:26:36;;;;;;;6.35;2.00;;;;;;;6.01;51.72;99390.16;5133753;27;20046;-66
2022/02/19 03:29:05;;;;;;;8.00;1.88;;;;;;;6.07;51.92;99393.66;5113505;28;20400;-67
2022/02/19 03:31:32;;;;;;;5.10;1.60;;;;;;;6.01;51.95;99389.34;5115504;27;20044;-67
2022/02/19 03:34:00;;;;;;;6.32;1.85;;;;;;;5.97;52.92;99402.97;5133331;27;20057;-67
2022/02/19 03:36:27;;;;;;;5.78;2.22;;;;;;;6.01;51.95;99417.81;5133920;27;20051;-67
2022/02/19 03:38:55;;;;;;;10.70;2.30;;;;;;;5.99;52.58;99433.06;5133252;27;20073;-67
2022/02/19 03:41:22;;;;;;;7.47;2.10;;;;;;;5.97;52.80;99419.56;5133406;27;20097;-66
2022/02/19 03:43:49;;;;;;;5.95;1.42;;;;;;;5.90;53.18;99427.44;5120832;27;20043;-66
2022/02/19 03:46:18;;;;;;;9.82;1.75;;;;;;;5.93;53.96;99432.31;5132307;27;20074;-66
2022/02/19 03:48:45;;;;;;;6.10;1.90;;;;;;;5.87;53.38;99472.25;5133334;27;20055;-66
2022/02/19 03:51:15;;;;;;;5.57;1.85;;;;;;;5.91;53.98;99451.16;5133014;27;20600;-66
2022/02/19 03:53:42;;;;;;;7.40;1.85;;;;;;;5.84;54.29;99467.34;5133188;27;20055;-66
2022/02/19 03:56:09;;;;;;;6.68;1.63;;;;;;;5.85;54.27;99485.56;5131997;27;20047;-66
2022/02/19 03:58:37;;;;;;;4.80;1.65;;;;;;;5.77;54.30;99477.97;5132590;27;20411;-66
2022/02/19 04:01:04;;;;;;;6.82;1.83;;;;;;;5.72;55.35;99486.38;5132801;27;20054;-66
2022/02/19 04:03:33;;;;;;;5.95;1.95;;;;;;;5.77;55.12;99491.78;5133151;27;20058;-67
2022/02/19 04:06:00;;;;;;;6.68;1.92;;;;;;;5.75;54.83;99492.09;5132425;27;20074;-66
2022/02/19 04:08:28;;;;;;;6.20;1.90;;;;;;;5.75;54.75;99492.09;5132984;27;20049;-66
2022/02/19 04:10:55;;;;;;;4.82;1.90;;;;;;;5.63;55.21;99517.47;5132906;27;20122;-66
2022/02/19 04:13:23;;;;;;;7.55;2.53;;;;;;;5.68;55.88;99509.09;5127961;27;20423;-66
2022/02/19 04:15:50;;;;;;;9.43;2.03;;;;;;;5.62;55.32;99515.00;5133002;27;20433;-66
2022/02/19 04:18:18;;;;;;;8.35;1.80;;;;;;;5.65;55.88;99515.22;5132764;27;20051;-66
2022/02/19 04:20:47;;;;;;;5.32;1.42;;;;;;;5.73;55.16;99524.72;5133266;27;20047;-67
2022/02/19 04:23:14;;;;;;;6.53;1.85;;;;;;;5.63;56.01;99531.28;5131788;27;20054;-67
2022/02/19 04:25:41;;;;;;;7.82;1.45;;;;;;;5.73;55.78;99527.50;5131106;27;20055;-67
2022/02/19 04:28:10;;;;;;;11.77;1.98;;;;;;;5.67;55.96;99535.09;5121990;27;20485;-67
2022/02/19 04:30:38;;;;;;;7.88;1.70;;;;;;;5.75;56.06;99543.78;5132755;27;20050;-67
2022/02/19 04:33:08;;;;;;;8.63;2.15;;;;;;;5.66;55.78;99541.72;5133233;27;20058;-66
2022/02/19 04:35:35;;;;;;;8.50;2.10;;;;;;;5.67;55.87;99561.91;5132451;27;20065;-67
2022/02/19 04:38:04;;;;;;;7.78;2.17;;;;;;;5.67;56.20;99562.72;5132145;27;20423;-68
2022/02/19 04:40:31;;;;;;;6.07;1.63;;;;;;;5.73;55.77;99555.13;5132866;27;20064;-67
2022/02/19 04:42:59;;;;;;;5.40;1.48;;;;;;;5.76;55.81;99557.28;5130228;27;20396;-67
2022/02/19 04:45:26;;;;;;;5.25;1.58;;;;;;;5.66;55.63;99572.09;5123883;27;20052;-67
2022/02/19 04:47:54;;;;;;;6.18;1.65;;;;;;;5.70;55.83;99580.63;5112191;28;20051;-67
2022/02/19 04:50:24;;;;;;;7.50;1.60;;;;;;;5.81;54.88;99592.31;5124472;27;20492;-67
2022/02/19 04:52:51;;;;;;;6.60;1.60;;;;;;;5.82;55.07;99586.47;5132349;27;20043;-67
2022/02/19 04:55:20;;;;;;;7.97;1.77;;;;;;;5.70;54.56;99594.44;5131591;27;20055;-68
2022/02/19 04:57:47;;;;;;;6.28;1.45;;;;;;;5.74;55.13;99608.47;5129914;27;20054;-67
2022/02/19 05:00:17;;;;;;;7.07;1.90;;;;;;;5.80;54.84;99598.97;5132068;27;20043;-67
2022/02/19 05:02:44;;;;;;;6.65;2.15;;;;;;;5.76;54.57;99606.22;5132769;27;20050;-67
2022/02/19 05:05:12;;;;;;;7.25;1.98;;;;;;;5.76;54.87;99603.47;5132041;27;20057;-67
2022/02/19 05:07:39;;;;;;;9.20;2.58;;;;;;;5.87;55.12;99615.97;5132438;27;20318;-67
2022/02/19 05:10:07;;;;;;;7.13;1.83;;;;;;;5.80;54.57;99610.03;5131913;27;20078;-67
2022/02/19 05:12:40;;;;;;;6.38;2.10;;;;;;;5.75;54.07;99623.91;5127397;28;20497;-68
2022/02/19 05:15:11;;;;;;;5.88;1.60;;;;;;;5.79;54.34;99633.22;5131535;28;20047;-66
2022/02/19 05:17:45;;;;;;;6.57;1.83;;;;;;;5.72;54.22;99646.63;5131671;28;20039;-67
2022/02/19 05:20:13;;;;;;;7.50;2.00;;;;;;;5.78;54.78;99628.84;5131448;28;20055;-67
2022/02/19 05:22:40;;;;;;;6.72;1.98;;;;;;;5.81;54.67;99637.31;5131765;28;20043;-67
2022/02/19 05:25:08;;;;;;;8.88;2.00;;;;;;;5.79;54.97;99636.00;5132192;28;20051;-66
2022/02/19 05:27:37;;;;;;;6.32;2.00;;;;;;;5.74;55.17;99647.97;5122672;28;20502;-67
2022/02/19 05:30:07;;;;;;;7.78;1.98;;;;;;;5.82;55.31;99655.56;5129991;28;20047;-66
2022/02/19 05:32:35;;;;;;;6.07;2.00;;;;;;;5.79;55.46;99671.91;5131957;28;20054;-68
2022/02/19 05:35:02;;;;;;;5.75;1.92;;;;;;;5.60;56.58;99680.25;5131947;28;20078;-67
2022/02/19 05:37:30;;;;;;;6.07;1.80;;;;;;;5.71;56.32;99698.28;5132125;28;20055;-68
2022/02/19 05:39:58;;;;;;;6.03;1.75;;;;;;;5.66;58.35;99704.72;5132228;28;20073;-68
2022/02/19 05:42:28;;;;;;;5.35;1.75;;;;;;;5.51;62.43;99702.19;5123688;28;20059;-68
2022/02/19 05:44:57;;;;;;;8.60;2.30;;;;;;;5.40;62.77;99703.50;5130907;28;20054;-68
2022/02/19 05:47:24;;;;;;;7.15;2.38;;;;;;;5.36;62.42;99705.22;5130941;28;20062;-68
2022/02/19 05:49:52;;;;;;;7.13;1.90;;;;;;;5.44;62.12;99701.78;5123755;28;20047;-68
2022/02/19 05:52:19;;;;;;;7.50;2.20;;;;;;;5.38;61.80;99708.50;5131429;28;20043;-69
2022/02/19 05:54:47;;;;;;;5.47;1.75;;;;;;;5.42;61.85;99710.34;5132079;28;20054;-68
2022/02/19 05:57:14;;;;;;;7.05;1.45;;;;;;;5.47;60.88;99720.50;5123108;28;20055;-68
2022/02/19 05:59:42;;;;;;;10.75;2.17;;;;;;;5.45;59.10;99714.44;5128756;28;20043;-68
2022/02/19 06:02:10;;;;;;;7.10;1.70;;;;;;;5.37;58.76;99739.97;5130990;28;20055;-68
2022/02/19 06:04:38;;;;;;;5.75;1.90;;;;;;;5.28;58.52;99732.34;5132127;28;20051;-68
2022/02/19 06:07:05;;;;;;;8.88;2.35;;;;;;;5.23;58.69;99724.16;5131323;27;20067;-68
2022/02/19 06:09:33;;;;;;;6.13;1.83;;;;;;;5.21;58.70;99740.19;5134982;27;20403;-68
2022/02/19 06:12:00;;;;;;;11.48;2.28;;;;;;;5.02;59.04;99744.88;5132929;27;20065;-68
2022/02/19 06:14:27;;;;;;;10.70;2.47;;;;;;;4.95;59.32;99731.41;5136026;27;20074;-68
2022/02/19 06:16:55;;;;;;;8.80;2.40;;;;;;;5.00;59.76;99734.13;5135569;27;20051;-68
2022/02/19 06:19:24;;;;;;;6.80;2.15;;;;;;;4.96;59.53;99735.00;5134988;27;20496;-68
2022/02/19 06:21:51;;;;;;;6.47;2.60;;;;;;;4.91;59.78;99754.38;5135116;27;20059;-68
2022/02/19 06:24:18;;;;;;;6.60;2.25;;;;;;;4.88;60.31;99744.75;5134361;27;20047;-68
2022/02/19 06:26:46;;;;;;;7.97;2.20;;;;;;;4.95;60.06;99760.94;5132818;27;20432;-68
2022/02/19 06:29:13;;;;;;;8.45;1.90;;;;;;;4.94;60.04;99760.13;5121312;27;20059;-68
2022/02/19 06:31:41;;;;;;;7.97;1.88;;;;;;;4.84;59.92;99769.34;5114225;28;20416;-68
2022/02/19 06:34:08;;;;;;;10.15;1.90;;;;;;;4.95;60.13;99769.22;5125209;27;20047;-67
2022/02/19 06:36:37;;;;;;;6.25;1.98;;;;;;;4.96;59.71;99768.13;5134756;27;20062;-67
2022/02/19 06:39:06;;;;;;;10.13;2.42;;;;;;;5.00;59.66;99783.78;5134748;27;20062;-67
2022/02/19 06:41:33;;;;;;;6.47;1.73;;;;;;;5.03;59.42;99785.13;5132775;27;20052;-67
2022/02/19 06:44:00;;;;;;;9.23;2.10;;;;;;;5.14;59.04;99789.41;5134531;27;20515;-67
2022/02/19 06:46:28;;;;;;;13.95;4.68;;;;;;;5.09;59.08;99811.56;5134590;27;20058;-68
2022/02/19 06:48:55;;;;;;;9.07;3.33;;;;;;;5.12;58.60;99813.72;5133995;27;20051;-67
2022/02/19 06:51:22;;;;;;;12.75;3.97;;;;;;;5.04;59.16;99820.72;5134585;27;20058;-67
2022/02/19 06:53:56;;;;;;;9.48;3.30;;;;;;;5.06;59.44;99812.13;5134884;27;20058;-67
2022/02/19 06:56:23;;;;;;;10.40;2.55;;;;;;;5.06;59.48;99834.22;5132094;27;20058;-67
2022/02/19 06:58:54;;;;;;;12.35;4.10;;;;;;;5.20;60.68;99831.59;5134521;27;20047;-67
2022/02/19 07:01:21;;;;;;;11.63;2.15;;;;;;;5.33;59.22;99830.03;5133844;27;20047;-67
2022/02/19 07:03:48;;;;;;;11.88;2.63;;;;;;;5.32;58.76;99826.47;5133372;27;20066;-67
2022/02/19 07:06:18;;;;;;;8.23;1.90;;;;;;;5.36;58.40;99855.13;5134506;27;20403;-67
2022/02/19 07:08:45;;;;;;;8.82;2.10;;;;;;;5.28;58.72;99850.25;5133788;27;20081;-67
2022/02/19 07:11:14;;;;;;;7.20;1.75;;;;;;;5.31;58.17;99854.38;5129851;27;20448;-67
2022/02/19 07:13:41;;;;;;;7.32;1.85;;;;;;;5.40;57.84;99850.69;5112895;28;20047;-67
2022/02/19 07:16:09;;;;;;;7.22;1.98;;;;;;;5.43;57.96;99860.31;5113491;28;20043;-67
2022/02/19 07:18:37;;;;;;;5.03;1.65;;;;;;;5.46;57.20;99865.25;5117571;27;20055;-67
2022/02/19 07:21:04;;;;;;;7.97;2.22;;;;;;;5.40;57.35;99871.94;5122020;27;20050;-67
2022/02/19 07:23:32;;;;;;;7.07;2.22;;;;;;;5.54;57.25;99867.31;5118912;27;20047;-68
2022/02/19 07:26:00;;;;;;;8.10;1.80;;;;;;;5.63;57.26;99882.16;5131957;27;20169;-67
2022/02/19 07:28:29;;;;;;;6.63;2.25;;;;;;;5.59;56.79;99889.38;5133862;27;20054;-67
2022/02/19 07:30:56;;;;;;;7.55;2.47;;;;;;;5.68;55.87;99895.06;5116423;27;20059;-68
2022/02/19 07:33:23;;;;;;;8.50;3.67;;;;;;;5.75;56.11;99897.47;5113158;28;20047;-68
2022/02/19 07:35:51;;;;;;;9.68;1.90;;;;;;;5.73;55.82;99897.75;5131126;27;20051;-68
2022/02/19 07:38:18;;;;;;;6.18;1.83;;;;;;;5.67;55.99;99915.53;5128167;27;20051;-67
2022/02/19 07:40:45;;;;;;;8.50;2.72;;;;;;;5.76;55.90;99908.22;5119777;27;20055;-67
2022/02/19 07:43:13;;;;;;;5.53;2.13;;;;;;;5.60;56.33;99918.63;5132206;27;20043;-68
2022/02/19 07:45:42;;;;;;;7.25;1.88;;;;;;;5.73;55.91;99924.56;5119019;27;20054;-68
2022/02/19 07:48:12;;;;;;;9.10;2.42;;;;;;;5.84;55.49;99931.63;5126771;27;20051;-68
2022/02/19 07:58:54;;;;;;;7.63;2.15;;;;;;;6.71;53.47;99960.81;5135102;27;20077;-68
2022/02/19 08:01:23;;;;;;;6.50;1.98;;;;;;;7.64;51.27;99955.28;5131062;27;20055;-68
2022/02/19 08:03:51;;;;;;;10.48;2.88;;;;;;;7.47;50.57;99955.88;5119310;27;20534;-68
2022/02/19 08:06:18;;;;;;;7.13;1.95;;;;;;;7.07;51.48;99963.81;5119018;27;20055;-68
2022/02/19 08:08:45;;;;;;;7.22;2.33;;;;;;;6.77;52.27;99969.88;5128650;27;20471;-68
2022/02/19 08:11:14;;;;;;;8.38;2.38;;;;;;;6.70;52.94;99984.91;5128304;27;20062;-68
2022/02/19 08:13:41;;;;;;;6.22;1.80;;;;;;;6.73;53.00;99979.91;5125266;27;20472;-68
2022/02/19 08:16:09;;;;;;;5.53;1.88;;;;;;;6.70;52.80;99989.63;5129370;27;20047;-68
2022/02/19 08:18:39;;;;;;;8.00;2.33;;;;;;;6.52;52.95;100004.28;5124807;27;20395;-68
2022/02/19 08:21:07;;;;;;;8.33;2.43;;;;;;;6.45;53.97;99991.66;5114573;27;20519;-68
2022/02/19 08:23:35;;;;;;;6.28;2.10;;;;;;;6.52;53.18;99999.56;5114460;27;20097;-68
2022/02/19 08:26:02;;;;;;;8.18;1.85;;;;;;;6.37;53.65;99992.31;5126525;27;20047;-68
2022/02/19 08:28:30;;;;;;;9.80;2.80;;;;;;;6.27;53.80;100006.28;5128064;27;20519;-68
2022/02/19 08:30:57;;;;;;;11.63;2.55;;;;;;;6.22;53.55;100014.66;5122020;27;20058;-68
2022/02/19 08:33:24;;;;;;;6.35;1.90;;;;;;;6.36;54.69;100020.25;5131245;27;20055;-68
2022/02/19 08:35:53;;;;;;;6.50;1.88;;;;;;;6.19;55.32;100012.47;5131368;27;20051;-68
2022/02/19 08:38:22;;;;;;;6.00;2.25;;;;;;;6.24;55.62;100024.31;5122620;27;20126;-69
2022/02/19 08:40:49;;;;;;;7.13;2.15;;;;;;;6.31;55.64;100018.41;5111780;27;20062;-67
2022/02/19 08:43:17;;;;;;;7.43;2.03;;;;;;;6.32;55.41;100033.91;5122782;27;20062;-67
2022/02/19 08:45:46;;;;;;;8.10;2.03;;;;;;;6.41;54.28;100029.31;5125451;27;20511;-67
2022/02/19 08:48:13;;;;;;;9.10;2.38;;;;;;;6.65;54.72;100045.03;5117692;27;20055;-68
2022/02/19 08:50:41;;;;;;;7.78;2.72;;;;;;;7.04;53.48;100033.66;5131435;27;20051;-68
2022/02/19 08:53:12;;;;;;;5.75;2.30;;;;;;;7.26;52.44;100040.50;5129617;27;20066;-68
2022/02/19 08:55:40;;;;;;;7.05;1.75;;;;;;;7.43;51.64;100034.38;5125299;27;20054;-68
2022/02/19 08:58:08;;;;;;;11.82;2.40;;;;;;;7.63;51.66;100053.41;5119007;27;20396;-68
2022/02/19 09:00:36;;;;;;;8.20;2.58;;;;;;;7.98;50.56;100051.13;5111866;28;20059;-68
2022/02/19 09:03:03;;;;;;;7.70;2.33;;;;;;;8.13;49.75;100055.53;5119446;27;20043;-68
2022/02/19 09:05:31;;;;;;;5.28;2.20;;;;;;;8.73;48.46;100051.78;5124497;27;20043;-68
2022/02/19 09:07:59;;;;;;;6.22;2.20;;;;;;;9.78;46.73;100052.53;5131244;27;20047;-69
2022/02/19 09:10:28;;;;;;;8.25;2.17;;;;;;;10.46;44.58;100053.97;5128606;27;20494;-69
2022/02/19 09:12:55;;;;;;;5.30;2.33;;;;;;;11.21;42.69;100047.47;5112214;28;20555;-68
2022/02/19 09:15:25;;;;;;;7.93;2.40;;;;;;;10.92;42.77;100051.75;5122677;28;20047;-68
2022/02/19 09:17:54;;;;;;;7.95;2.33;;;;;;;11.17;41.81;100041.72;5120662;28;20039;-67
2022/02/19 09:20:22;;;;;;;6.43;2.50;;;;;;;11.52;41.08;100052.84;5123135;28;20058;-67
2022/02/19 09:22:49;;;;;;;7.20;2.20;;;;;;;10.65;43.02;100061.22;5111182;28;20066;-68
2022/02/19 09:25:17;;;;;;;6.25;2.10;;;;;;;9.85;44.01;100052.88;5112801;27;20062;-67
2022/02/19 09:27:45;;;;;;;8.98;2.47;;;;;;;9.77;44.98;100062.84;5130860;28;20055;-68
2022/02/19 09:30:14;;;;;;;8.07;1.67;;;;;;;9.51;45.35;100059.88;5111840;27;20492;-68
2022/02/19 09:32:42;;;;;;;6.20;2.72;;;;;;;8.93;46.85;100072.72;5115102;28;20052;-69
2022/02/19 09:35:12;;;;;;;6.38;1.95;;;;;;;8.69;46.81;100087.69;5113108;27;20047;-69
2022/02/19 09:37:39;;;;;;;;;;;;;;;8.17;47.97;100075.97;5130729;27;20070;-68
2022/02/19 09:40:08;;;;;;;8.95;2.75;;;;;;;8.40;47.48;100059.41;5111676;28;19926;-68
2022/02/19 09:42:37;;;;;;;8.60;2.40;;;;;;;8.24;48.44;100070.00;5113351;27;20056;-68
2022/02/19 09:45:07;;;;;;;14.02;3.00;;;;;;;8.23;48.83;100076.69;5117635;27;20056;-69
2022/02/19 09:47:36;;;;;;;6.90;2.35;;;;;;;8.62;47.36;100076.16;5128163;27;20498;-69
2022/02/19 09:50:04;;;;;;;6.15;1.98;;;;;;;8.38;46.97;100062.50;5126345;27;20047;-69
2022/02/19 09:52:32;;;;;;;5.68;2.50;;;;;;;8.93;46.54;100075.50;5125216;27;20066;-69
2022/02/19 09:55:01;;;;;;;8.27;2.35;;;;;;;10.34;46.29;100059.34;5129136;27;20050;-36
2022/02/19 09:57:28;;;;;;;10.88;2.83;;;;;;;10.89;42.08;100053.19;5123658;27;20043;-65
2022/02/19 09:59:56;;;;;;;9.95;2.83;;;;;;;12.72;38.93;100066.63;5110915;27;20527;-66
2022/02/19 10:02:32;;;;;;;7.85;2.40;;;;;;;14.16;36.42;100061.50;5135200;27;20507;-66
2022/02/19 10:05:16;;;;;;;5.50;2.28;;;;;;;13.19;36.58;100043.28;5135810;27;20055;-66
2022/02/19 10:07:46;;;;;;;7.13;2.53;;;;;;;14.24;35.48;100056.97;5135491;27;20051;-66
2022/02/19 10:10:26;;;;;;;5.88;2.30;;;;;;;14.58;33.67;100066.91;5132531;27;20054;-66
2022/02/19 10:12:54;;;;;;;7.63;2.72;;;;;;;13.85;34.87;100059.25;5134608;27;20059;-65
2022/02/19 10:15:21;;;;;;;6.82;2.22;;;;;;;14.40;34.26;100054.28;5136107;27;20549;-65
2022/02/19 10:17:50;;;;;;;8.70;2.83;;;;;;;13.57;35.17;100073.06;5135394;27;20051;-65
2022/02/19 10:20:18;;;;;;;7.05;1.83;;;;;;;13.10;35.70;100076.06;5117496;27;20048;-65
2022/02/19 10:22:46;;;;;;;8.65;2.47;;;;;;;12.57;37.36;100068.03;5118707;27;20050;-64
2022/02/19 10:25:16;;;;;;;8.32;2.50;;;;;;;13.71;34.98;100067.97;5130123;27;20044;-64
2022/02/19 10:27:54;;;;;;;4.85;1.88;;;;;;;12.56;36.94;100071.19;5133648;27;20051;-64
2022/02/19 10:30:23;;;;;;;5.18;1.70;;;;;;;12.04;37.33;100072.25;5124415;27;20055;-64
2022/02/19 10:32:54;;;;;;;6.85;1.98;;;;;;;11.72;37.46;100090.38;5131709;27;20055;-64
2022/02/19 10:35:28;;;;;;;8.30;2.42;;;;;;;14.19;34.05;100069.22;5125758;27;20039;-64
2022/02/19 10:37:55;;;;;;;7.57;2.10;;;;;;;14.20;33.70;100070.84;5130588;27;20050;-64
2022/02/19 10:40:32;;;;;;;7.30;2.25;;;;;;;15.40;31.80;100065.78;5132967;27;20073;-64
2022/02/19 10:43:02;;;;;;;6.00;2.30;;;;;;;17.02;30.20;100064.28;5134400;27;20059;-64
2022/02/19 10:45:30;;;;;;;7.22;2.58;;;;;;;18.24;27.33;100078.78;5121447;27;20393;-64
2022/02/19 10:50:50;;;;;;;5.93;2.22;;;;;;;19.25;25.89;100071.88;5109825;27;20614;-64
2022/02/19 10:53:26;;;;;;;6.05;2.10;;;;;;;20.46;24.41;100065.94;5100456;28;20064;-64
2022/02/19 10:55:54;;;;;;;5.53;2.40;;;;;;;21.31;23.69;100073.34;5092601;28;20052;-64
2022/02/19 10:58:22;;;;;;;5.30;2.00;;;;;;;21.70;23.33;100069.91;5088846;28;20079;-63
2022/02/19 11:00:50;;;;;;;5.90;1.73;;;;;;;21.72;22.17;100073.16;5089239;28;20044;-63
2022/02/19 11:03:18;;;;;;;6.35;2.05;;;;;;;20.25;24.18;100095.66;5093172;28;20504;-63
2022/02/19 11:05:45;;;;;;;6.78;2.28;;;;;;;19.93;24.19;100088.84;5106199;28;20055;-63
2022/02/19 11:08:15;;;;;;;5.60;2.20;;;;;;;20.11;24.15;100078.53;5104052;28;20055;-63
2022/02/19 11:10:44;;;;;;;5.18;2.08;;;;;;;19.94;24.67;100079.97;5085110;28;20071;-63
2022/02/19 11:13:13;;;;;;;5.90;1.90;;;;;;;18.53;25.73;100092.56;5094331;28;20056;-63
2022/02/19 11:15:41;;;;;;;6.93;2.50;;;;;;;17.75;27.05;100098.41;5089624;28;20516;-63
2022/02/19 11:18:09;;;;;;;8.80;2.20;;;;;;;17.59;27.12;100078.75;5097293;28;20052;-64
2022/02/19 11:20:36;;;;;;;5.72;1.85;;;;;;;16.20;28.39;100094.84;5106401;28;20051;-63
2022/02/19 11:23:04;;;;;;;6.38;1.92;;;;;;;15.22;29.11;100095.31;5103271;28;20052;-63
2022/02/19 11:25:35;;;;;;;7.57;2.60;;;;;;;15.82;28.95;100085.03;5088745;28;20044;-63
2022/02/19 11:28:06;;;;;;;5.63;2.10;;;;;;;16.33;28.26;100089.97;5091886;28;20052;-64
2022/02/19 11:30:42;;;;;;;7.22;2.05;;;;;;;17.08;27.83;100087.34;5088448;28;20071;-65
2022/02/19 11:33:12;;;;;;;4.15;1.90;;;;;;;16.29;28.14;100089.06;5097691;28;20048;-64
2022/02/19 11:35:42;;;;;;;5.38;2.13;;;;;;;15.57;29.27;100083.50;5108806;28;20412;-64
2022/02/19 11:38:24;;;;;;;9.90;2.65;;;;;;;14.53;31.18;100089.56;5095764;28;20063;-64
2022/02/19 11:40:55;;;;;;;7.55;2.15;;;;;;;13.54;32.77;100093.31;5094817;28;20408;-64
2022/02/19 11:43:38;;;;;;;5.78;2.00;;;;;;;17.07;28.07;100074.44;5104726;28;20048;-64
2022/02/19 11:46:34;;;;;;;7.20;2.08;;;;;;;18.85;26.08;100081.81;5106682;28;20059;-64
2022/02/19 11:49:20;;;;;;;5.10;1.50;;;;;;;19.99;25.40;100070.34;5089410;28;20060;-64
2022/02/19 11:51:48;;;;;;;6.18;2.00;;;;;;;20.33;24.04;100073.09;5088051;28;20052;-64
2022/02/19 11:54:27;;;;;;;6.22;1.52;;;;;;;20.87;23.10;100074.31;5088451;28;20059;-65